Time;durP1;ratioP1;P1;durP2;ratioP2;P2;SDS_P1;SDS_P2;PMS_P1;PMS_P2;Temp;Humidity;BMP_temperature;BMP_pressure;BME280_temperature;BME280_humidity;BME280_pressure;Samples;Min_cycle;Max_cycle;Signal;HPM_P1;HPM_P2
2022/08/30 00:01:09;;;;;;;12.95;5.00;;;;;;;;;;4955786;29;20538;-73
2022/08/30 00:03:44;;;;;;;13.20;5.05;;;;;;;;;;4956012;29;20019;-74
2022/08/30 00:06:11;;;;;;;10.02;5.35;;;;;;;;;;4955844;29;20035;-73
2022/08/30 00:08:39;;;;;;;9.63;5.07;;;;;;;;;;4956029;29;20028;-74
2022/08/30 00:11:08;;;;;;;8.10;4.78;;;;;;;;;;4956223;29;20082;-75
2022/08/30 00:13:39;;;;;;;9.18;5.30;;;;;;;;;;4956132;29;20382;-74
2022/08/30 00:16:05;;;;;;;10.25;5.60;;;;;;;;;;4956120;29;20035;-75
2022/08/30 00:18:35;;;;;;;9.80;5.25;;;;;;;;;;4955814;29;20023;-74
2022/08/30 00:21:02;;;;;;;7.47;4.90;;;;;;;;;;4955564;29;20028;-76
2022/08/30 00:23:27;;;;;;;12.93;5.45;;;;;;;;;;4955627;29;20035;-74
2022/08/30 00:25:53;;;;;;;7.82;5.25;;;;;;;;;;4955860;29;20031;-74
2022/08/30 00:28:19;;;;;;;13.77;5.03;;;;;;;;;;4955477;29;20024;-74
2022/08/30 00:30:46;;;;;;;11.60;5.20;;;;;;;;;;4956321;29;20363;-74
2022/08/30 00:33:13;;;;;;;10.85;5.10;;;;;;;;;;4956221;29;20034;-74
2022/08/30 00:35:40;;;;;;;7.20;4.80;;;;;;;;;;4955858;29;20042;-73
2022/08/30 00:38:10;;;;;;;6.90;4.95;;;;;;;;;;4955782;28;20475;-74
2022/08/30 00:40:38;;;;;;;8.32;4.70;;;;;;;;;;4955653;29;20475;-74
2022/08/30 00:43:11;;;;;;;13.95;5.43;;;;;;;;;;4956127;29;20470;-74
2022/08/30 00:45:37;;;;;;;13.68;4.55;;;;;;;;;;4956476;29;20540;-74
2022/08/30 00:48:04;;;;;;;10.13;5.15;;;;;;;;;;4955743;29;20348;-73
2022/08/30 00:50:35;;;;;;;10.05;4.72;;;;;;;;;;4955633;29;20434;-74
2022/08/30 00:53:05;;;;;;;8.82;4.45;;;;;;;;;;4947443;29;20162;-74
2022/08/30 00:55:32;;;;;;;7.35;4.30;;;;;;;;;;4936752;29;20387;-73
2022/08/30 00:58:02;;;;;;;9.00;4.72;;;;;;;;;;4919477;29;20694;-74
2022/08/30 01:00:28;;;;;;;10.63;4.20;;;;;;;;;;4936364;29;20035;-73
2022/08/30 01:02:54;;;;;;;10.25;3.95;;;;;;;;;;4936339;29;20038;-74
2022/08/30 01:05:20;;;;;;;14.10;5.30;;;;;;;;;;4936497;29;20380;-76
2022/08/30 01:07:46;;;;;;;12.30;5.90;;;;;;;;;;4936598;29;20031;-74
2022/08/30 01:10:14;;;;;;;14.18;6.25;;;;;;;;;;4936617;29;20550;-74
2022/08/30 01:12:41;;;;;;;14.95;6.47;;;;;;;;;;4936307;29;20103;-75
2022/08/30 01:15:09;;;;;;;15.93;5.93;;;;;;;;;;4935968;29;20031;-73
2022/08/30 01:17:35;;;;;;;13.43;6.28;;;;;;;;;;4935892;29;20027;-74
2022/08/30 01:20:10;;;;;;;11.30;6.30;;;;;;;;;;4918462;29;20416;-73
2022/08/30 01:22:48;;;;;;;14.63;6.43;;;;;;;;;;4935598;29;20044;-73
2022/08/30 01:25:24;;;;;;;12.65;6.90;;;;;;;;;;4935680;29;20038;-73
2022/08/30 01:27:54;;;;;;;9.52;5.75;;;;;;;;;;4935700;29;20451;-73
2022/08/30 01:30:22;;;;;;;13.07;7.22;;;;;;;;;;4935683;29;20479;-74
2022/08/30 01:32:48;;;;;;;12.40;6.32;;;;;;;;;;4935453;29;20043;-73
2022/08/30 01:35:16;;;;;;;14.88;6.95;;;;;;;;;;4935556;29;20034;-74
2022/08/30 01:37:44;;;;;;;13.48;6.57;;;;;;;;;;4935346;29;20035;-73
2022/08/30 01:40:15;;;;;;;13.43;6.50;;;;;;;;;;4935217;29;20020;-74
2022/08/30 01:42:41;;;;;;;11.52;7.20;;;;;;;;;;4935261;29;20031;-74
2022/08/30 01:45:07;;;;;;;17.40;6.68;;;;;;;;;;4935449;29;20035;-73
2022/08/30 01:47:33;;;;;;;11.75;6.10;;;;;;;;;;4935220;29;20032;-73
2022/08/30 01:49:59;;;;;;;10.35;5.80;;;;;;;;;;4934628;29;20101;-74
2022/08/30 01:52:25;;;;;;;11.88;5.85;;;;;;;;;;4934970;29;20035;-74
2022/08/30 01:54:52;;;;;;;15.50;6.60;;;;;;;;;;4935295;29;20028;-74
2022/08/30 01:57:20;;;;;;;9.52;5.93;;;;;;;;;;4935265;29;20046;-74
2022/08/30 01:59:48;;;;;;;14.38;6.15;;;;;;;;;;4935246;29;20039;-75
2022/08/30 02:02:18;;;;;;;15.07;6.18;;;;;;;;;;4917871;29;20403;-74
2022/08/30 02:04:44;;;;;;;16.50;5.93;;;;;;;;;;4935122;29;20118;-73
2022/08/30 02:07:10;;;;;;;10.77;5.97;;;;;;;;;;4934785;29;20111;-74
2022/08/30 02:09:36;;;;;;;10.55;5.78;;;;;;;;;;4934674;29;20020;-73
2022/08/30 02:12:06;;;;;;;17.13;6.70;;;;;;;;;;4920659;29;20142;-73
2022/08/30 02:14:34;;;;;;;11.85;6.55;;;;;;;;;;4915527;29;20032;-73
2022/08/30 02:17:01;;;;;;;8.32;5.40;;;;;;;;;;4915802;29;20472;-74
2022/08/30 02:19:28;;;;;;;12.23;5.95;;;;;;;;;;4915894;29;20016;-73
2022/08/30 02:21:54;;;;;;;8.30;4.90;;;;;;;;;;4915426;29;20402;-74
2022/08/30 02:24:20;;;;;;;11.38;5.70;;;;;;;;;;4915370;29;20028;-74
2022/08/30 02:26:46;;;;;;;8.23;5.28;;;;;;;;;;4915376;29;20046;-74
2022/08/30 02:29:12;;;;;;;11.52;5.03;;;;;;;;;;4915539;29;20080;-74
2022/08/30 02:31:38;;;;;;;10.10;5.00;;;;;;;;;;4927085;29;20059;-74
2022/08/30 02:34:04;;;;;;;13.98;5.47;;;;;;;;;;4934757;29;20463;-73
2022/08/30 02:36:29;;;;;;;12.32;4.95;;;;;;;;;;4934625;29;20039;-73
2022/08/30 02:38:55;;;;;;;9.50;4.80;;;;;;;;;;4917463;29;20033;-74
2022/08/30 02:41:22;;;;;;;10.43;4.50;;;;;;;;;;4934541;29;20042;-76
2022/08/30 02:43:49;;;;;;;10.07;4.97;;;;;;;;;;4934373;29;20031;-74
2022/08/30 02:46:16;;;;;;;10.52;4.68;;;;;;;;;;4916494;29;20036;-74
2022/08/30 02:48:43;;;;;;;8.68;4.72;;;;;;;;;;4933478;29;20108;-74
2022/08/30 02:51:12;;;;;;;16.20;5.55;;;;;;;;;;4933645;29;20043;-74
2022/08/30 02:53:39;;;;;;;9.35;5.05;;;;;;;;;;4934592;29;20028;-74
2022/08/30 02:56:06;;;;;;;13.85;5.25;;;;;;;;;;4935071;29;20044;-74
2022/08/30 02:58:32;;;;;;;13.90;5.32;;;;;;;;;;4935503;29;20070;-74
2022/08/30 03:00:58;;;;;;;14.57;4.95;;;;;;;;;;4937557;29;20047;-74
2022/08/30 03:03:24;;;;;;;11.30;5.28;;;;;;;;;;4938984;29;20067;-74
2022/08/30 03:05:50;;;;;;;9.48;4.72;;;;;;;;;;4939022;29;20036;-75
2022/08/30 03:08:15;;;;;;;17.98;5.57;;;;;;;;;;4936938;29;20054;-74
2022/08/30 03:10:41;;;;;;;9.48;4.82;;;;;;;;;;4938373;29;20467;-75
2022/08/30 03:13:07;;;;;;;8.45;4.85;;;;;;;;;;4938155;29;20024;-75
2022/08/30 03:15:34;;;;;;;13.38;6.15;;;;;;;;;;4938614;29;20094;-75
2022/08/30 03:18:01;;;;;;;17.98;6.10;;;;;;;;;;4938882;29;20610;-74
2022/08/30 03:20:27;;;;;;;12.43;6.05;;;;;;;;;;4938672;29;20464;-75
2022/08/30 03:22:53;;;;;;;15.25;6.38;;;;;;;;;;4938505;29;20035;-74
2022/08/30 03:25:20;;;;;;;21.40;7.53;;;;;;;;;;4938076;29;20040;-75
2022/08/30 03:27:47;;;;;;;18.13;6.70;;;;;;;;;;4919655;29;20034;-75
2022/08/30 03:30:13;;;;;;;10.65;5.60;;;;;;;;;;4902994;29;20037;-74
2022/08/30 03:32:40;;;;;;;9.75;5.82;;;;;;;;;;4936674;29;20553;-75
2022/08/30 03:35:07;;;;;;;9.93;6.18;;;;;;;;;;4938459;29;20035;-75
2022/08/30 03:37:33;;;;;;;13.70;5.40;;;;;;;;;;4938346;29;20039;-75
2022/08/30 03:39:59;;;;;;;10.95;5.18;;;;;;;;;;4921282;29;20456;-75
2022/08/30 03:42:24;;;;;;;12.02;5.20;;;;;;;;;;4937850;29;20063;-75
2022/08/30 03:44:50;;;;;;;11.18;5.60;;;;;;;;;;4933249;29;20369;-74
2022/08/30 03:47:16;;;;;;;12.15;5.72;;;;;;;;;;4937858;29;20039;-75
2022/08/30 03:49:42;;;;;;;13.13;5.10;;;;;;;;;;4938183;29;20042;-75
2022/08/30 03:52:08;;;;;;;10.18;5.50;;;;;;;;;;4937744;29;20071;-75
2022/08/30 03:54:34;;;;;;;14.38;5.88;;;;;;;;;;4937832;29;20027;-74
2022/08/30 03:56:59;;;;;;;14.52;5.95;;;;;;;;;;4937693;29;20050;-73
2022/08/30 03:59:25;;;;;;;16.92;5.28;;;;;;;;;;4938010;29;20032;-74
2022/08/30 04:01:51;;;;;;;13.80;5.10;;;;;;;;;;4937449;29;20114;-74
2022/08/30 04:04:17;;;;;;;10.45;4.57;;;;;;;;;;4937895;29;20031;-74
2022/08/30 04:06:43;;;;;;;9.93;5.85;;;;;;;;;;4937536;29;20024;-74
2022/08/30 04:09:09;;;;;;;17.50;9.35;;;;;;;;;;4937511;29;20106;-73
2022/08/30 04:11:35;;;;;;;16.75;7.75;;;;;;;;;;4937030;29;20106;-75
2022/08/30 04:14:01;;;;;;;21.42;6.80;;;;;;;;;;4937279;29;20465;-74
2022/08/30 04:16:26;;;;;;;13.63;6.07;;;;;;;;;;4936909;29;20023;-75
2022/08/30 04:18:52;;;;;;;12.10;4.50;;;;;;;;;;4936897;29;20043;-73
2022/08/30 04:21:18;;;;;;;13.23;4.55;;;;;;;;;;4936752;29;20348;-74
2022/08/30 04:23:46;;;;;;;7.97;4.55;;;;;;;;;;4937108;29;20508;-74
2022/08/30 04:26:12;;;;;;;25.60;6.88;;;;;;;;;;4937145;29;20058;-75
2022/08/30 04:28:37;;;;;;;17.00;6.07;;;;;;;;;;4937460;29;20059;-75
2022/08/30 04:31:11;;;;;;;11.65;5.30;;;;;;;;;;4920015;29;20122;-75
2022/08/30 04:33:37;;;;;;;10.30;5.28;;;;;;;;;;4936430;29;20028;-76
2022/08/30 04:36:06;;;;;;;15.55;5.28;;;;;;;;;;4936430;29;20023;-77
2022/08/30 04:38:33;;;;;;;21.30;7.03;;;;;;;;;;4936769;29;20432;-76
2022/08/30 04:40:59;;;;;;;14.75;5.20;;;;;;;;;;4936903;29;20051;-76
2022/08/30 04:43:25;;;;;;;11.90;5.50;;;;;;;;;;4933676;29;20115;-75
2022/08/30 04:45:52;;;;;;;11.13;5.38;;;;;;;;;;4919300;29;20031;-77
2022/08/30 04:48:19;;;;;;;10.43;4.95;;;;;;;;;;4936454;29;20056;-76
2022/08/30 04:50:45;;;;;;;11.00;5.40;;;;;;;;;;4934231;29;20051;-77
2022/08/30 04:53:12;;;;;;;9.57;4.90;;;;;;;;;;4936410;29;20462;-79
2022/08/30 04:55:42;;;;;;;14.32;5.72;;;;;;;;;;4934653;29;20097;-77
2022/08/30 04:58:09;;;;;;;15.18;5.68;;;;;;;;;;4936395;29;20035;-76
2022/08/30 05:00:40;;;;;;;10.70;4.10;;;;;;;;;;4936018;29;20086;-75
2022/08/30 05:03:06;;;;;;;8.98;4.20;;;;;;;;;;4930066;29;20044;-80
2022/08/30 05:05:41;;;;;;;13.77;5.07;;;;;;;;;;4932911;29;20427;-78
2022/08/30 05:08:14;;;;;;;8.10;4.50;;;;;;;;;;4907364;29;20407;-76
2022/08/30 05:10:46;;;;;;;9.73;4.70;;;;;;;;;;4915470;29;20119;-76
2022/08/30 05:13:12;;;;;;;9.83;4.30;;;;;;;;;;4916293;29;20401;-77
2022/08/30 05:15:39;;;;;;;12.55;4.32;;;;;;;;;;4916642;29;20262;-76
2022/08/30 05:18:06;;;;;;;11.05;4.10;;;;;;;;;;4917004;29;20443;-75
2022/08/30 05:20:33;;;;;;;8.25;4.15;;;;;;;;;;4898833;29;20032;-76
2022/08/30 05:23:00;;;;;;;12.50;4.35;;;;;;;;;;4916449;29;20032;-75
2022/08/30 05:25:29;;;;;;;8.98;4.47;;;;;;;;;;4916441;29;20086;-76
2022/08/30 05:27:56;;;;;;;8.95;4.30;;;;;;;;;;4917013;29;20476;-78
2022/08/30 05:30:23;;;;;;;12.15;4.05;;;;;;;;;;4916838;29;20067;-79
2022/08/30 05:32:49;;;;;;;11.02;4.70;;;;;;;;;;4916504;29;20044;-80
2022/08/30 05:35:17;;;;;;;9.73;4.50;;;;;;;;;;4916177;29;20028;-79
2022/08/30 05:37:43;;;;;;;10.27;4.15;;;;;;;;;;4915673;29;20099;-78
2022/08/30 05:40:10;;;;;;;9.93;4.28;;;;;;;;;;4916407;29;20032;-78
2022/08/30 05:42:39;;;;;;;8.98;4.20;;;;;;;;;;4915527;29;20090;-79
2022/08/30 05:45:05;;;;;;;12.30;4.05;;;;;;;;;;4917140;29;20780;-81
2022/08/30 05:47:31;;;;;;;13.85;4.25;;;;;;;;;;4916869;29;20467;-80
2022/08/30 05:49:57;;;;;;;10.85;5.07;;;;;;;;;;4916683;29;20035;-81
2022/08/30 05:52:23;;;;;;;13.73;4.50;;;;;;;;;;4916718;29;20044;-80
2022/08/30 05:54:55;;;;;;;12.00;4.50;;;;;;;;;;4916709;29;20039;-81
2022/08/30 05:57:21;;;;;;;7.88;4.10;;;;;;;;;;4916480;29;20500;-81
2022/08/30 05:59:47;;;;;;;7.30;4.00;;;;;;;;;;4899787;29;20044;-84
2022/08/30 06:02:13;;;;;;;6.68;3.80;;;;;;;;;;4916889;29;20091;-83
2022/08/30 06:04:39;;;;;;;8.43;3.95;;;;;;;;;;4916599;29;20028;-84
2022/08/30 06:07:05;;;;;;;9.00;3.80;;;;;;;;;;4916569;29;20136;-76
2022/08/30 06:09:31;;;;;;;11.38;4.13;;;;;;;;;;4916220;29;20028;-84
2022/08/30 06:11:58;;;;;;;14.07;4.80;;;;;;;;;;4916784;29;20376;-79
2022/08/30 06:14:24;;;;;;;10.43;4.07;;;;;;;;;;4916785;29;20028;-79
2022/08/30 06:16:50;;;;;;;10.32;4.43;;;;;;;;;;4916832;29;20047;-76
2022/08/30 06:19:17;;;;;;;9.25;4.15;;;;;;;;;;4930993;29;20028;-89
2022/08/30 06:21:47;;;;;;;10.70;4.20;;;;;;;;;;4917332;29;20080;-87
2022/08/30 06:24:13;;;;;;;9.80;4.00;;;;;;;;;;4916439;29;20047;-84
2022/08/30 06:26:43;;;;;;;8.93;4.80;;;;;;;;;;4916316;29;20068;-75
2022/08/30 06:29:11;;;;;;;12.70;4.18;;;;;;;;;;4916378;29;20523;-75
2022/08/30 06:31:37;;;;;;;9.52;4.18;;;;;;;;;;4916088;29;20040;-78
2022/08/30 06:34:03;;;;;;;8.48;4.28;;;;;;;;;;4916449;29;20036;-79
2022/08/30 06:36:30;;;;;;;11.82;4.18;;;;;;;;;;4922079;29;20306;-76
2022/08/30 06:38:57;;;;;;;11.55;4.25;;;;;;;;;;4923033;29;20425;-75
2022/08/30 06:41:32;;;;;;;9.43;4.25;;;;;;;;;;4922949;29;20487;-82
2022/08/30 06:44:00;;;;;;;11.57;4.75;;;;;;;;;;4922508;29;20056;-80
2022/08/30 06:46:29;;;;;;;14.38;4.28;;;;;;;;;;4920481;29;20055;-77
2022/08/30 06:48:56;;;;;;;16.05;4.45;;;;;;;;;;4922765;29;20122;-80
2022/08/30 06:51:25;;;;;;;11.88;4.10;;;;;;;;;;4905907;29;20039;-79
2022/08/30 06:53:52;;;;;;;9.57;3.92;;;;;;;;;;4922090;29;20039;-78
2022/08/30 06:56:19;;;;;;;8.48;3.90;;;;;;;;;;4933883;29;20039;-78
2022/08/30 06:58:46;;;;;;;13.68;5.05;;;;;;;;;;4923744;29;20040;-76
2022/08/30 07:01:25;;;;;;;11.20;4.85;;;;;;;;;;4941041;29;20075;-77
2022/08/30 07:03:52;;;;;;;12.48;4.50;;;;;;;;;;4940983;29;20036;-74
2022/08/30 07:06:19;;;;;;;16.90;4.78;;;;;;;;;;4940777;29;20479;-76
2022/08/30 07:08:45;;;;;;;10.55;4.78;;;;;;;;;;4940627;29;20031;-75
2022/08/30 07:11:11;;;;;;;12.52;4.60;;;;;;;;;;4941009;29;20090;-76
2022/08/30 07:13:37;;;;;;;12.60;4.10;;;;;;;;;;4923634;29;20039;-76
2022/08/30 07:16:13;;;;;;;13.32;4.70;;;;;;;;;;4926937;29;20016;-76
2022/08/30 07:18:53;;;;;;;12.43;4.75;;;;;;;;;;4922047;29;20454;-77
2022/08/30 07:21:26;;;;;;;12.52;4.63;;;;;;;;;;4921373;29;20044;-79
2022/08/30 07:23:53;;;;;;;8.73;4.00;;;;;;;;;;4921748;29;20032;-77
2022/08/30 07:26:29;;;;;;;10.30;4.40;;;;;;;;;;4904502;29;20036;-77
2022/08/30 07:28:55;;;;;;;11.25;4.50;;;;;;;;;;4921512;29;20550;-76
2022/08/30 07:31:21;;;;;;;12.32;4.32;;;;;;;;;;4921386;29;20033;-78
2022/08/30 07:33:47;;;;;;;9.27;4.63;;;;;;;;;;4921289;29;20400;-81
2022/08/30 07:36:16;;;;;;;11.10;4.68;;;;;;;;;;4921762;29;20491;-80
2022/08/30 07:38:42;;;;;;;9.95;4.00;;;;;;;;;;4938182;29;20106;-78
2022/08/30 07:41:08;;;;;;;13.57;4.63;;;;;;;;;;4940301;29;20031;-79
2022/08/30 07:43:35;;;;;;;11.20;4.60;;;;;;;;;;4940531;29;20047;-78
2022/08/30 07:46:05;;;;;;;9.38;4.47;;;;;;;;;;4939580;29;20498;-77
2022/08/30 07:48:33;;;;;;;12.95;4.65;;;;;;;;;;4937392;29;20035;-77
2022/08/30 07:50:59;;;;;;;9.25;4.50;;;;;;;;;;4937709;29;20106;-78
2022/08/30 07:53:25;;;;;;;12.05;4.63;;;;;;;;;;4937539;29;20078;-78
2022/08/30 07:55:51;;;;;;;12.07;4.60;;;;;;;;;;4931287;29;20542;-78
2022/08/30 07:58:17;;;;;;;11.50;4.38;;;;;;;;;;4918430;29;20127;-78
2022/08/30 08:00:42;;;;;;;16.65;5.25;;;;;;;;;;4937330;29;20122;-78
2022/08/30 08:03:09;;;;;;;11.25;4.68;;;;;;;;;;4937466;29;20399;-79
2022/08/30 08:05:43;;;;;;;11.07;4.85;;;;;;;;;;4924057;29;20424;-77
2022/08/30 08:08:10;;;;;;;10.80;5.05;;;;;;;;;;4901371;29;20032;-78
2022/08/30 08:10:38;;;;;;;12.48;4.47;;;;;;;;;;4918020;29;20035;-79
2022/08/30 08:13:04;;;;;;;11.48;4.95;;;;;;;;;;4917791;29;20043;-77
2022/08/30 08:15:30;;;;;;;14.20;5.00;;;;;;;;;;4918303;29;20071;-77
2022/08/30 08:17:56;;;;;;;11.77;4.38;;;;;;;;;;4901065;29;20069;-79
2022/08/30 08:20:24;;;;;;;14.48;4.72;;;;;;;;;;4917926;29;20024;-79
2022/08/30 08:22:51;;;;;;;9.38;4.45;;;;;;;;;;4917822;29;20040;-78
2022/08/30 08:25:17;;;;;;;7.13;3.83;;;;;;;;;;4917832;29;20035;-78
2022/08/30 08:27:46;;;;;;;12.93;4.15;;;;;;;;;;4918135;29;20123;-78
2022/08/30 08:30:12;;;;;;;26.52;4.82;;;;;;;;;;4918057;29;20083;-79
2022/08/30 08:32:39;;;;;;;12.60;4.43;;;;;;;;;;4917855;29;20054;-78
2022/08/30 08:35:05;;;;;;;12.23;4.40;;;;;;;;;;4918313;29;20056;-78
2022/08/30 08:37:31;;;;;;;11.77;4.72;;;;;;;;;;4917397;29;20036;-79
2022/08/30 08:39:57;;;;;;;9.20;4.10;;;;;;;;;;4917831;29;20084;-80
2022/08/30 08:42:44;;;;;;;12.98;4.65;;;;;;;;;;4917662;29;20116;-76
2022/08/30 08:45:15;;;;;;;10.80;4.70;;;;;;;;;;4917727;29;20040;-78
2022/08/30 08:48:06;;;;;;;10.35;4.47;;;;;;;;;;4917604;29;20032;-77
2022/08/30 08:50:32;;;;;;;11.77;4.35;;;;;;;;;;4896878;29;20036;-79
2022/08/30 08:53:34;;;;;;;11.35;5.10;;;;;;;;;;4896922;29;20028;-78
2022/08/30 08:56:04;;;;;;;12.30;4.70;;;;;;;;;;4898144;29;20053;-78
2022/08/30 08:58:39;;;;;;;10.80;4.60;;;;;;;;;;4897349;29;20118;-78
2022/08/30 09:01:07;;;;;;;13.07;4.95;;;;;;;;;;4899011;29;20040;-78
2022/08/30 09:03:34;;;;;;;11.50;4.50;;;;;;;;;;4898775;29;20107;-78
2022/08/30 09:06:06;;;;;;;11.10;4.60;;;;;;;;;;4898938;29;20422;-78
2022/08/30 09:08:32;;;;;;;11.20;4.60;;;;;;;;;;4898355;29;20136;-78
2022/08/30 09:11:04;;;;;;;9.63;4.68;;;;;;;;;;4898426;29;20483;-78
2022/08/30 09:13:30;;;;;;;13.73;5.10;;;;;;;;;;4898510;29;20124;-78
2022/08/30 09:15:57;;;;;;;16.65;4.78;;;;;;;;;;4898403;29;20451;-78
2022/08/30 09:18:55;;;;;;;15.43;5.18;;;;;;;;;;4898377;29;20028;-77
2022/08/30 09:21:26;;;;;;;10.30;4.45;;;;;;;;;;4856972;29;20049;-79
2022/08/30 09:24:03;;;;;;;15.73;4.90;;;;;;;;;;4881553;29;20130;-78
2022/08/30 09:26:35;;;;;;;10.25;4.90;;;;;;;;;;4898203;29;20039;-77
2022/08/30 09:29:03;;;;;;;8.57;5.00;;;;;;;;;;4898297;29;20373;-78
2022/08/30 09:31:52;;;;;;;7.45;4.13;;;;;;;;;;4898103;29;20323;-77
2022/08/30 09:34:21;;;;;;;12.32;5.00;;;;;;;;;;4898358;29;20066;-78
2022/08/30 09:36:52;;;;;;;12.48;4.68;;;;;;;;;;4897972;29;20386;-78
2022/08/30 09:39:33;;;;;;;10.40;5.07;;;;;;;;;;4881115;29;20056;-78
2022/08/30 09:42:24;;;;;;;12.27;4.85;;;;;;;;;;4897921;29;20166;-78
2022/08/30 09:44:51;;;;;;;8.65;5.00;;;;;;;;;;4897773;29;20378;-79
2022/08/30 09:47:27;;;;;;;14.15;4.85;;;;;;;;;;4897980;29;20031;-78
2022/08/30 09:50:05;;;;;;;12.38;5.00;;;;;;;;;;4898483;29;20036;-78
2022/08/30 09:52:38;;;;;;;12.15;5.07;;;;;;;;;;4898215;29;20095;-80
2022/08/30 09:55:31;;;;;;;10.43;4.65;;;;;;;;;;4898479;29;20036;-80
2022/08/30 09:58:26;;;;;;;10.00;4.68;;;;;;;;;;4898149;29;20040;-82
2022/08/30 10:01:13;;;;;;;22.60;5.97;;;;;;;;;;4898253;29;20069;-81
2022/08/30 10:03:48;;;;;;;13.68;4.82;;;;;;;;;;4898237;29;20551;-79
2022/08/30 10:06:27;;;;;;;12.93;5.15;;;;;;;;;;4899431;29;20039;-79
2022/08/30 10:08:59;;;;;;;12.95;4.97;;;;;;;;;;4897576;29;20060;-78
2022/08/30 10:11:38;;;;;;;7.87;4.33;;;;;;;;;;4897284;29;20029;-78
2022/08/30 10:14:18;;;;;;;11.32;4.90;;;;;;;;;;4897668;29;20028;-78
2022/08/30 10:16:57;;;;;;;9.55;4.30;;;;;;;;;;4897743;29;20437;-77
2022/08/30 10:19:35;;;;;;;9.02;5.00;;;;;;;;;;4897900;29;20039;-77
2022/08/30 10:22:07;;;;;;;13.05;5.40;;;;;;;;;;4898250;29;20044;-78
2022/08/30 10:24:44;;;;;;;11.50;4.40;;;;;;;;;;4865545;29;20041;-78
2022/08/30 10:27:25;;;;;;;13.73;4.82;;;;;;;;;;4897647;29;20088;-79
2022/08/30 10:29:59;;;;;;;15.45;5.03;;;;;;;;;;4897717;29;20482;-78
2022/08/30 10:32:48;;;;;;;13.63;4.75;;;;;;;;;;4897601;29;20128;-80
2022/08/30 10:35:26;;;;;;;12.15;4.60;;;;;;;;;;4897370;29;20041;-79
2022/08/30 10:38:05;;;;;;;12.30;4.43;;;;;;;;;;4880868;29;20148;-78
2022/08/30 10:43:39;;;;;;;12.70;4.40;;;;;;;;;;4897460;29;20120;-78
2022/08/30 10:46:13;;;;;;;14.45;4.45;;;;;;;;;;4897601;29;20504;-78
2022/08/30 10:48:42;;;;;;;11.93;4.80;;;;;;;;;;4880535;29;20131;-79
2022/08/30 10:51:15;;;;;;;12.27;6.00;;;;;;;;;;4897246;29;20036;-78
2022/08/30 10:53:43;;;;;;;;;;;;;;;;;;4897705;29;20043;-78
2022/08/30 10:56:14;;;;;;;11.40;4.80;;;;;;;;;;4896932;29;19920;-78
2022/08/30 10:58:41;;;;;;;15.35;4.90;;;;;;;;;;4897437;29;20041;-78
2022/08/30 11:01:44;;;;;;;10.90;4.85;;;;;;;;;;4897355;29;20033;-78
2022/08/30 11:04:40;;;;;;;16.40;6.03;;;;;;;;;;4880247;29;20147;-77
2022/08/30 11:07:20;;;;;;;14.13;4.32;;;;;;;;;;4897175;29;20120;-76
2022/08/30 11:10:31;;;;;;;15.77;4.78;;;;;;;;;;4897367;29;20365;-78
2022/08/30 11:12:58;;;;;;;10.60;5.07;;;;;;;;;;4805920;29;20039;-78
2022/08/30 11:15:28;;;;;;;11.13;4.32;;;;;;;;;;4821220;29;20374;-78
2022/08/30 11:18:03;;;;;;;12.85;4.60;;;;;;;;;;4859690;29;20052;-77
2022/08/30 11:20:42;;;;;;;13.38;4.75;;;;;;;;;;4880233;29;20039;-78
2022/08/30 11:23:17;;;;;;;12.30;4.80;;;;;;;;;;4899153;29;20033;-77
2022/08/30 11:25:50;;;;;;;11.68;4.20;;;;;;;;;;4900647;29;20397;-77
2022/08/30 11:28:39;;;;;;;13.07;4.70;;;;;;;;;;4900574;29;20029;-77
2022/08/30 11:31:21;;;;;;;10.18;4.20;;;;;;;;;;4890541;29;20048;-76
2022/08/30 11:33:50;;;;;;;11.65;3.90;;;;;;;;;;4900225;29;20029;-77
2022/08/30 11:36:28;;;;;;;11.57;3.88;;;;;;;;;;4900514;29;20084;-77
2022/08/30 11:38:54;;;;;;;16.23;4.40;;;;;;;;;;4900258;29;20044;-77
2022/08/30 11:41:44;;;;;;;12.27;4.40;;;;;;;;;;4899713;29;20025;-78
2022/08/30 11:44:22;;;;;;;13.05;3.97;;;;;;;;;;4899920;29;20066;-78
2022/08/30 11:46:49;;;;;;;13.63;4.60;;;;;;;;;;4900210;29;20060;-79
2022/08/30 11:49:18;;;;;;;17.95;4.40;;;;;;;;;;4900546;29;20512;-78
2022/08/30 11:51:58;;;;;;;21.20;4.95;;;;;;;;;;4900289;29;20029;-79
2022/08/30 11:54:52;;;;;;;9.05;3.88;;;;;;;;;;4900295;29;20045;-79
2022/08/30 11:57:47;;;;;;;13.40;4.93;;;;;;;;;;4899935;29;20461;-81
2022/08/30 12:00:30;;;;;;;12.88;4.68;;;;;;;;;;4899967;29;20041;-80
2022/08/30 12:03:04;;;;;;;;;;;;;;;;;;4900377;29;20047;-80
2022/08/30 12:05:38;;;;;;;10.57;4.32;;;;;;;;;;4900024;29;19970;-80
2022/08/30 12:08:07;;;;;;;16.65;4.28;;;;;;;;;;4900068;29;20123;-79
2022/08/30 12:10:40;;;;;;;13.05;4.32;;;;;;;;;;4899907;29;20392;-78
2022/08/30 12:13:07;;;;;;;11.63;4.55;;;;;;;;;;4899917;29;20087;-76
2022/08/30 12:15:56;;;;;;;15.07;4.38;;;;;;;;;;4899766;29;20087;-78
2022/08/30 12:18:46;;;;;;;18.90;5.53;;;;;;;;;;4899763;29;20028;-79
2022/08/30 12:21:20;;;;;;;16.35;4.78;;;;;;;;;;4899821;29;20372;-79
2022/08/30 12:24:06;;;;;;;13.85;4.40;;;;;;;;;;4899886;29;20036;-78
2022/08/30 12:26:44;;;;;;;11.90;4.25;;;;;;;;;;4900024;29;20048;-83
2022/08/30 12:29:17;;;;;;;14.32;4.75;;;;;;;;;;4899548;29;20063;-80
2022/08/30 12:31:48;;;;;;;14.70;4.32;;;;;;;;;;4882822;29;20039;-83
2022/08/30 12:34:40;;;;;;;14.93;4.60;;;;;;;;;;4898517;29;20059;-77
2022/08/30 12:37:24;;;;;;;15.18;4.32;;;;;;;;;;4890601;29;20048;-76
2022/08/30 12:40:09;;;;;;;10.38;3.92;;;;;;;;;;4916816;29;20031;-78
2022/08/30 12:42:40;;;;;;;16.63;4.45;;;;;;;;;;4917825;29;20500;-79
2022/08/30 12:45:11;;;;;;;14.55;4.40;;;;;;;;;;4927714;29;20063;-78
2022/08/30 12:47:49;;;;;;;18.65;4.40;;;;;;;;;;4937182;29;20040;-76
2022/08/30 12:50:21;;;;;;;9.43;4.13;;;;;;;;;;4937021;29;20035;-79
2022/08/30 12:52:58;;;;;;;11.15;3.92;;;;;;;;;;4923497;29;20063;-78
2022/08/30 12:55:31;;;;;;;11.68;3.85;;;;;;;;;;4903484;29;20452;-80
2022/08/30 12:58:08;;;;;;;16.73;4.43;;;;;;;;;;4912143;29;20045;-78
2022/08/30 13:00:38;;;;;;;18.17;4.53;;;;;;;;;;4915678;29;20032;-81
2022/08/30 13:03:33;;;;;;;15.82;4.60;;;;;;;;;;4915536;29;20530;-76
2022/08/30 13:06:00;;;;;;;18.08;4.63;;;;;;;;;;4912734;29;20071;-78
2022/08/30 13:08:55;;;;;;;15.02;4.30;;;;;;;;;;4915630;29;20028;-80
2022/08/30 13:11:21;;;;;;;16.25;4.30;;;;;;;;;;4901588;29;20060;-76
2022/08/30 13:13:50;;;;;;;14.57;4.47;;;;;;;;;;4915938;29;20032;-76
2022/08/30 13:16:23;;;;;;;12.65;3.92;;;;;;;;;;4915162;29;20092;-76
2022/08/30 13:18:52;;;;;;;18.23;4.05;;;;;;;;;;4903260;29;20047;-76
2022/08/30 13:21:26;;;;;;;17.13;4.93;;;;;;;;;;4915419;29;20056;-75
2022/08/30 13:24:03;;;;;;;8.13;3.10;;;;;;;;;;4914500;29;20484;-73
2022/08/30 13:26:33;;;;;;;14.73;3.45;;;;;;;;;;4914127;29;20040;-76
2022/08/30 13:29:02;;;;;;;11.90;3.90;;;;;;;;;;4912935;29;20043;-76
2022/08/30 13:31:29;;;;;;;9.75;3.08;;;;;;;;;;4897531;29;20035;-75
2022/08/30 13:33:56;;;;;;;17.45;3.83;;;;;;;;;;4914194;29;20045;-74
2022/08/30 13:36:29;;;;;;;12.57;3.47;;;;;;;;;;4911956;29;20067;-76
2022/08/30 13:38:56;;;;;;;10.45;3.30;;;;;;;;;;4913663;29;20032;-72
2022/08/30 13:41:22;;;;;;;14.00;3.45;;;;;;;;;;4914607;29;20488;-74
2022/08/30 13:43:48;;;;;;;11.43;3.20;;;;;;;;;;4914539;29;20503;-76
2022/08/30 13:46:15;;;;;;;15.18;3.40;;;;;;;;;;4914069;29;20059;-74
2022/08/30 13:48:42;;;;;;;15.13;3.40;;;;;;;;;;4915661;29;20115;-73
2022/08/30 13:51:08;;;;;;;10.77;3.33;;;;;;;;;;4915533;29;20054;-73
2022/08/30 13:53:34;;;;;;;7.70;3.28;;;;;;;;;;4914901;29;20508;-76
2022/08/30 13:56:01;;;;;;;10.23;3.28;;;;;;;;;;4913285;29;20119;-75
2022/08/30 13:58:28;;;;;;;12.15;3.97;;;;;;;;;;4918227;29;20037;-75
2022/08/30 14:00:54;;;;;;;10.63;3.60;;;;;;;;;;4915831;29;20490;-76
2022/08/30 14:03:19;;;;;;;8.45;3.60;;;;;;;;;;4914723;29;20036;-77
2022/08/30 14:05:46;;;;;;;12.90;3.83;;;;;;;;;;4915707;29;20391;-75
2022/08/30 14:08:17;;;;;;;7.35;3.53;;;;;;;;;;4922618;29;20372;-73
2022/08/30 14:10:42;;;;;;;14.32;3.88;;;;;;;;;;4934179;29;20488;-79
2022/08/30 14:13:08;;;;;;;15.18;3.67;;;;;;;;;;4934473;29;20174;-78
2022/08/30 14:15:38;;;;;;;13.82;4.07;;;;;;;;;;4929485;29;20056;-80
2022/08/30 14:18:05;;;;;;;14.20;3.72;;;;;;;;;;4915282;29;20046;-86
2022/08/30 14:20:31;;;;;;;15.85;3.95;;;;;;;;;;4915312;29;20032;-84
2022/08/30 14:22:57;;;;;;;15.18;3.90;;;;;;;;;;4915810;29;20032;-87
2022/08/30 14:25:23;;;;;;;13.98;4.15;;;;;;;;;;4915256;29;20055;-84
2022/08/30 14:27:48;;;;;;;13.23;4.43;;;;;;;;;;4916553;29;20036;-80
2022/08/30 14:30:14;;;;;;;14.63;4.80;;;;;;;;;;4934504;29;20039;-81
2022/08/30 14:32:40;;;;;;;16.35;4.53;;;;;;;;;;4933930;29;20106;-78
2022/08/30 14:35:06;;;;;;;19.73;4.95;;;;;;;;;;4934011;29;20566;-79
2022/08/30 14:37:32;;;;;;;10.93;3.97;;;;;;;;;;4934300;29;20026;-80
2022/08/30 14:39:58;;;;;;;11.60;4.38;;;;;;;;;;4914785;29;20048;-80
2022/08/30 14:42:24;;;;;;;12.23;3.83;;;;;;;;;;4914559;29;20518;-78
2022/08/30 14:44:50;;;;;;;10.00;4.00;;;;;;;;;;4913745;29;20029;-78
2022/08/30 14:47:15;;;;;;;8.40;3.00;;;;;;;;;;4914799;29;20063;-77
2022/08/30 14:49:41;;;;;;;12.18;3.47;;;;;;;;;;4914794;29;20063;-78
2022/08/30 14:52:07;;;;;;;9.93;3.50;;;;;;;;;;4915347;29;20365;-76
2022/08/30 14:54:33;;;;;;;13.35;3.95;;;;;;;;;;4914741;29;20385;-81